Weather at Bologna Guglielmo Marconi Airport

Public forecast

Using degrees Celsius for public forecast. Weather courtesy of forecast.io.

Current aviation weather report (METAR) for Bologna Guglielmo Marconi Airport

Retrieved 2021/12/09 07:20 UTC (24 minutes ago):

LIPE 090720Z 22003KT 7000 FEW018 SCT050 01/M00 Q1001

Aviation forecast (TAF) for Bologna Guglielmo Marconi Airport

Retrieved 2021/12/09 06:00 UTC (2 hours ago):

TAF LIPE 090500Z 0906/1006 28008KT 8000 SCT060 PROB40 TEMPO 0906/0912 3000 RASN